createdAt,value
2022-12-06T00:00:25.995Z,10.90
2022-12-06T00:01:45.967Z,12.68
2022-12-06T00:02:47.861Z,11.70
2022-12-06T00:03:54.923Z,11.73
2022-12-06T00:04:56.609Z,12.45
2022-12-06T00:06:09.001Z,13.55
2022-12-06T00:07:13.062Z,11.43
2022-12-06T00:08:15.078Z,12.23
2022-12-06T00:09:22.903Z,11.90
2022-12-06T00:10:25.780Z,12.07
2022-12-06T00:11:31.301Z,12.38
2022-12-06T00:12:33.019Z,12.90
2022-12-06T00:13:36.106Z,10.75
2022-12-06T00:14:37.936Z,11.15
2022-12-06T00:15:39.647Z,13.65
2022-12-06T00:16:41.530Z,10.32
2022-12-06T00:17:43.423Z,12.63
2022-12-06T00:18:46.958Z,12.90
2022-12-06T00:19:48.726Z,10.43
2022-12-06T00:20:50.440Z,12.20
2022-12-06T00:21:52.296Z,12.48
2022-12-06T00:22:54.086Z,13.30
2022-12-06T00:24:06.742Z,13.07
2022-12-06T00:25:08.638Z,12.95
2022-12-06T00:26:11.037Z,12.02
2022-12-06T00:27:12.824Z,12.15
2022-12-06T00:28:14.581Z,14.88
2022-12-06T00:29:24.326Z,12.38
2022-12-06T00:30:26.079Z,11.40
2022-12-06T00:31:31.009Z,15.30
2022-12-06T00:32:32.801Z,11.93
2022-12-06T00:33:36.857Z,12.45
2022-12-06T00:34:38.599Z,13.23
2022-12-06T00:35:40.345Z,12.48
2022-12-06T00:36:42.544Z,12.02
2022-12-06T00:37:44.247Z,10.85
2022-12-06T00:38:47.263Z,11.57
2022-12-06T00:39:49.024Z,12.48
2022-12-06T00:41:04.093Z,11.20
2022-12-06T00:42:06.028Z,9.43
2022-12-06T00:43:07.773Z,8.48
2022-12-06T00:44:09.853Z,9.70
2022-12-06T00:45:11.668Z,9.98
2022-12-06T00:46:23.918Z,8.90
2022-12-06T00:47:25.672Z,7.50
2022-12-06T00:48:28.024Z,10.10
2022-12-06T00:49:29.755Z,8.57
2022-12-06T00:50:31.531Z,8.13
2022-12-06T00:51:34.781Z,7.57
2022-12-06T00:52:36.481Z,10.13
2022-12-06T00:53:38.416Z,9.65
2022-12-06T00:54:40.135Z,10.07
2022-12-06T00:55:44.351Z,7.72
2022-12-06T00:56:46.109Z,7.68
2022-12-06T00:57:47.894Z,9.40
2022-12-06T00:58:49.820Z,7.47
2022-12-06T00:59:51.513Z,8.15
2022-12-06T01:00:53.711Z,7.07
2022-12-06T01:01:55.527Z,6.72
2022-12-06T01:03:00.531Z,8.63
2022-12-06T01:04:06.772Z,7.65
2022-12-06T01:05:09.213Z,7.97
2022-12-06T01:06:14.822Z,8.02
2022-12-06T01:07:16.562Z,8.07
2022-12-06T01:08:19.440Z,7.10
2022-12-06T01:09:21.329Z,8.07
2022-12-06T01:10:23.193Z,7.15
2022-12-06T01:11:27.023Z,8.02
2022-12-06T01:12:28.771Z,6.50
2022-12-06T01:13:30.895Z,6.93
2022-12-06T01:14:33.011Z,6.97
2022-12-06T01:15:38.432Z,6.65
2022-12-06T01:16:40.906Z,7.85
2022-12-06T01:17:42.836Z,8.43
2022-12-06T01:18:45.736Z,6.63
2022-12-06T01:19:49.746Z,7.38
2022-12-06T01:20:51.527Z,6.38
2022-12-06T01:21:53.305Z,7.07
2022-12-06T01:22:55.053Z,6.80
2022-12-06T01:23:58.053Z,8.52
2022-12-06T01:24:59.806Z,8.95
2022-12-06T01:26:02.455Z,6.63
2022-12-06T01:27:04.210Z,6.97
2022-12-06T01:28:06.046Z,7.78
2022-12-06T01:29:07.866Z,7.55
2022-12-06T01:30:09.993Z,8.85
2022-12-06T01:31:12.537Z,7.85
2022-12-06T01:32:14.417Z,8.82
2022-12-06T01:33:16.307Z,6.88
2022-12-06T01:34:18.046Z,8.13
2022-12-06T01:35:19.772Z,6.88
2022-12-06T01:36:26.645Z,7.47
2022-12-06T01:37:28.548Z,7.50
2022-12-06T01:38:30.608Z,8.27
2022-12-06T01:39:32.534Z,7.32
2022-12-06T01:40:46.953Z,7.05
2022-12-06T01:41:48.724Z,6.53
2022-12-06T01:42:50.491Z,7.50
2022-12-06T01:43:53.359Z,8.48
2022-12-06T01:45:00.149Z,7.10
2022-12-06T01:46:39.506Z,7.85
2022-12-06T01:47:44.181Z,8.85
2022-12-06T01:48:49.664Z,7.90
2022-12-06T01:49:59.032Z,7.93
2022-12-06T01:51:02.072Z,8.75
2022-12-06T01:52:12.518Z,7.13
2022-12-06T01:53:15.530Z,6.35
2022-12-06T01:54:21.597Z,6.32
2022-12-06T01:55:30.801Z,5.82
2022-12-06T01:56:32.674Z,6.20
2022-12-06T01:57:35.123Z,6.68
2022-12-06T01:58:41.465Z,8.48
2022-12-06T01:59:44.095Z,5.70
2022-12-06T02:00:46.152Z,6.93
2022-12-06T02:01:49.360Z,5.90
2022-12-06T02:02:51.880Z,6.30
2022-12-06T02:03:58.645Z,6.43
2022-12-06T02:05:02.957Z,6.55
2022-12-06T02:06:08.624Z,6.38
2022-12-06T02:07:12.169Z,5.97
2022-12-06T02:08:15.069Z,8.80
2022-12-06T02:09:18.544Z,6.18
2022-12-06T02:10:20.625Z,6.30
2022-12-06T02:11:22.562Z,7.03
2022-12-06T02:12:24.321Z,7.00
2022-12-06T02:13:26.752Z,6.28
2022-12-06T02:14:34.298Z,6.55
2022-12-06T02:16:17.578Z,6.25
2022-12-06T02:17:45.536Z,8.02
2022-12-06T02:19:14.647Z,7.13
2022-12-06T02:20:43.934Z,6.22
2022-12-06T02:22:18.869Z,11.48
2022-12-06T02:23:35.478Z,6.78
2022-12-06T02:25:25.018Z,9.02
2022-12-06T02:26:49.249Z,5.85
2022-12-06T02:28:21.707Z,7.28
2022-12-06T02:30:08.595Z,7.05
2022-12-06T02:31:30.581Z,6.72
2022-12-06T02:33:00.299Z,8.70
2022-12-06T02:34:12.788Z,9.50
2022-12-06T02:35:35.728Z,9.52
2022-12-06T02:36:54.383Z,8.50
2022-12-06T02:38:34.607Z,9.10
2022-12-06T02:40:02.958Z,8.43
2022-12-06T02:41:17.358Z,9.75
2022-12-06T02:42:45.728Z,7.93
2022-12-06T02:43:58.586Z,7.93
2022-12-06T02:45:09.946Z,8.88
2022-12-06T02:46:16.834Z,10.00
2022-12-06T02:47:30.341Z,10.38
2022-12-06T02:48:34.779Z,8.38
2022-12-06T02:49:44.823Z,9.55
2022-12-06T02:51:12.488Z,9.25
2022-12-06T02:52:15.583Z,8.38
2022-12-06T02:53:22.186Z,9.35
2022-12-06T02:54:27.191Z,9.40
2022-12-06T02:55:31.553Z,8.13
2022-12-06T02:56:34.849Z,8.65
2022-12-06T02:57:51.047Z,8.52
2022-12-06T02:58:53.428Z,7.40
2022-12-06T02:59:55.348Z,8.30
2022-12-06T03:01:02.736Z,9.55
2022-12-06T03:02:10.955Z,9.43
2022-12-06T03:03:56.647Z,9.57
2022-12-06T03:05:27.429Z,7.53
2022-12-06T03:06:56.737Z,8.23
2022-12-06T03:08:07.895Z,8.80
2022-12-06T03:09:32.561Z,6.97
2022-12-06T03:10:48.145Z,7.10
2022-12-06T03:12:04.679Z,6.25
2022-12-06T03:13:24.011Z,6.93
2022-12-06T03:14:33.367Z,7.03
2022-12-06T03:15:44.042Z,7.30
2022-12-06T03:17:11.374Z,8.25
2022-12-06T03:18:23.182Z,7.00
2022-12-06T03:19:29.576Z,7.32
2022-12-06T03:20:42.698Z,6.05
2022-12-06T03:22:06.488Z,7.85
2022-12-06T03:23:15.152Z,8.77
2022-12-06T03:24:17.484Z,7.53
2022-12-06T03:25:19.608Z,7.90
2022-12-06T03:26:30.736Z,7.78
2022-12-06T03:27:35.809Z,9.23
2022-12-06T03:28:39.339Z,8.68
2022-12-06T03:29:48.052Z,9.95
2022-12-06T03:30:57.724Z,7.80
2022-12-06T03:32:04.660Z,8.45
2022-12-06T03:33:06.520Z,8.38
2022-12-06T03:34:29.287Z,8.20
2022-12-06T03:35:35.427Z,8.23
2022-12-06T03:36:41.002Z,9.10
2022-12-06T03:37:49.430Z,6.88
2022-12-06T03:39:00.241Z,10.07
2022-12-06T03:40:09.569Z,7.15
2022-12-06T03:41:16.381Z,7.57
2022-12-06T03:42:19.559Z,9.43
2022-12-06T03:43:21.536Z,7.70
2022-12-06T03:44:24.510Z,6.45
2022-12-06T03:45:43.361Z,6.70
2022-12-06T03:46:52.797Z,7.47
2022-12-06T03:48:04.855Z,6.68
2022-12-06T03:49:20.644Z,6.25
2022-12-06T03:50:43.849Z,7.13
2022-12-06T03:51:46.475Z,9.45
2022-12-06T03:52:51.886Z,7.07
2022-12-06T03:53:58.309Z,7.55
2022-12-06T03:55:00.121Z,7.45
2022-12-06T03:56:01.885Z,6.47
2022-12-06T03:57:03.710Z,6.93
2022-12-06T03:58:05.534Z,7.00
2022-12-06T03:59:10.266Z,6.35
2022-12-06T04:00:13.103Z,7.25
2022-12-06T04:01:15.277Z,7.22
2022-12-06T04:02:17.117Z,8.27
2022-12-06T04:03:18.965Z,9.27
2022-12-06T04:04:20.780Z,6.57
2022-12-06T04:05:22.483Z,7.95
2022-12-06T04:06:24.743Z,7.40
2022-12-06T04:07:26.492Z,6.72
2022-12-06T04:08:28.238Z,7.35
2022-12-06T04:09:48.366Z,6.68
2022-12-06T04:10:50.128Z,7.00
2022-12-06T04:11:51.954Z,7.07
2022-12-06T04:13:02.666Z,9.07
2022-12-06T04:14:04.381Z,7.90
2022-12-06T04:15:07.633Z,8.27
2022-12-06T04:16:28.655Z,9.05
2022-12-06T04:17:48.856Z,7.20
2022-12-06T04:18:50.602Z,7.63
2022-12-06T04:19:52.413Z,6.93
2022-12-06T04:21:22.118Z,9.55
2022-12-06T04:22:42.270Z,6.05
2022-12-06T04:23:48.547Z,9.55
2022-12-06T04:24:50.308Z,7.28
2022-12-06T04:25:52.168Z,7.43
2022-12-06T04:27:13.872Z,7.75
2022-12-06T04:28:34.029Z,6.43
2022-12-06T04:29:54.384Z,7.68
2022-12-06T04:31:20.149Z,8.57
2022-12-06T04:32:42.054Z,6.38
2022-12-06T04:34:02.451Z,6.90
2022-12-06T04:35:22.786Z,6.95
2022-12-06T04:36:43.122Z,6.38
2022-12-06T04:38:03.507Z,7.05
2022-12-06T04:39:05.494Z,6.70
2022-12-06T04:40:08.157Z,7.90
2022-12-06T04:41:11.336Z,8.35
2022-12-06T04:42:32.112Z,6.68
2022-12-06T04:43:42.931Z,8.25
2022-12-06T04:44:44.767Z,7.60
2022-12-06T04:45:46.469Z,8.38
2022-12-06T04:46:48.344Z,21.10
2022-12-06T04:47:50.213Z,18.88
2022-12-06T04:48:52.297Z,30.50
2022-12-06T04:49:54.572Z,20.25
2022-12-06T04:50:56.321Z,13.30
2022-12-06T04:51:58.230Z,10.93
2022-12-06T04:52:59.919Z,9.38
2022-12-06T04:54:02.037Z,12.77
2022-12-06T04:55:05.236Z,10.10
2022-12-06T04:56:07.135Z,10.00
2022-12-06T04:57:12.630Z,8.32
2022-12-06T04:58:15.388Z,7.70
2022-12-06T04:59:17.510Z,8.43
2022-12-06T05:00:19.659Z,9.73
2022-12-06T05:01:21.430Z,9.80
2022-12-06T05:02:23.225Z,8.25
2022-12-06T05:03:25.039Z,7.20
2022-12-06T05:04:26.866Z,7.10
2022-12-06T05:05:28.609Z,7.72
2022-12-06T05:06:30.344Z,6.78
2022-12-06T05:07:32.149Z,7.57
2022-12-06T05:08:33.993Z,7.53
2022-12-06T05:09:35.799Z,7.20
2022-12-06T05:10:38.302Z,7.22
2022-12-06T05:11:40.136Z,7.97
2022-12-06T05:12:42.080Z,7.65
2022-12-06T05:13:43.801Z,7.72
2022-12-06T05:14:45.489Z,7.38
2022-12-06T05:16:03.745Z,9.02
2022-12-06T05:17:05.588Z,9.82
2022-12-06T05:18:07.309Z,7.75
2022-12-06T05:19:13.240Z,8.70
2022-12-06T05:20:15.051Z,7.03
2022-12-06T05:21:20.957Z,7.63
2022-12-06T05:22:22.725Z,6.88
2022-12-06T05:23:24.637Z,8.68
2022-12-06T05:24:26.429Z,8.88
2022-12-06T05:25:28.172Z,7.38
2022-12-06T05:26:30.348Z,7.82
2022-12-06T05:27:35.978Z,9.60
2022-12-06T05:28:38.318Z,10.00
2022-12-06T05:29:40.177Z,7.55
2022-12-06T05:30:41.943Z,7.35
2022-12-06T05:31:43.792Z,8.38
2022-12-06T05:32:45.659Z,9.85
2022-12-06T05:33:48.518Z,8.55
2022-12-06T05:34:50.589Z,8.25
2022-12-06T05:35:52.914Z,8.02
2022-12-06T05:36:54.808Z,10.43
2022-12-06T05:37:56.569Z,9.35
2022-12-06T05:38:58.379Z,8.85
2022-12-06T05:40:00.460Z,8.27
2022-12-06T05:41:03.865Z,7.80
2022-12-06T05:42:05.739Z,7.55
2022-12-06T05:43:07.496Z,7.88
2022-12-06T05:44:12.196Z,7.03
2022-12-06T05:45:14.121Z,8.02
2022-12-06T05:46:16.157Z,7.55
2022-12-06T05:47:17.872Z,7.68
2022-12-06T05:48:19.702Z,8.13
2022-12-06T05:49:21.538Z,7.85
2022-12-06T05:50:23.286Z,9.57
2022-12-06T05:51:25.022Z,7.47
2022-12-06T05:52:26.810Z,7.20
2022-12-06T05:53:28.834Z,8.45
2022-12-06T05:54:30.600Z,7.28
2022-12-06T05:55:32.365Z,6.85
2022-12-06T05:56:34.524Z,10.48
2022-12-06T05:57:36.291Z,13.88
2022-12-06T05:58:39.163Z,13.48
2022-12-06T05:59:40.981Z,14.60
2022-12-06T06:00:46.646Z,12.38
2022-12-06T06:01:48.393Z,12.57
2022-12-06T06:02:50.747Z,8.70
2022-12-06T06:03:52.722Z,9.73
2022-12-06T06:04:54.415Z,9.93
2022-12-06T06:06:00.193Z,6.78
2022-12-06T06:07:02.016Z,8.98
2022-12-06T06:08:03.955Z,9.38
2022-12-06T06:09:05.759Z,12.77
2022-12-06T06:10:08.007Z,9.95
2022-12-06T06:11:09.774Z,9.90
2022-12-06T06:12:12.858Z,8.80
2022-12-06T06:13:14.808Z,8.23
2022-12-06T06:14:16.598Z,11.27
2022-12-06T06:15:18.701Z,9.05
2022-12-06T06:16:21.621Z,8.27
2022-12-06T06:17:24.257Z,8.07
2022-12-06T06:18:26.371Z,10.10
2022-12-06T06:19:28.114Z,10.27
2022-12-06T06:20:29.955Z,10.48
2022-12-06T06:21:31.746Z,10.18
2022-12-06T06:22:36.209Z,11.30
2022-12-06T06:23:38.429Z,8.38
2022-12-06T06:24:42.623Z,8.48
2022-12-06T06:25:44.555Z,7.13
2022-12-06T06:26:46.294Z,7.90
2022-12-06T06:27:48.048Z,7.75
2022-12-06T06:28:49.927Z,8.45
2022-12-06T06:29:51.679Z,7.10
2022-12-06T06:30:53.451Z,7.70
2022-12-06T06:31:55.270Z,8.57
2022-12-06T06:32:57.054Z,8.00
2022-12-06T06:33:58.790Z,7.60
2022-12-06T06:35:00.706Z,8.68
2022-12-06T06:36:02.562Z,8.68
2022-12-06T06:37:04.310Z,8.35
2022-12-06T06:38:06.807Z,8.75
2022-12-06T06:39:08.544Z,7.80
2022-12-06T06:40:11.415Z,7.65
2022-12-06T06:41:13.255Z,7.60
2022-12-06T06:42:15.144Z,8.10
2022-12-06T06:43:20.155Z,7.65
2022-12-06T06:44:21.954Z,7.82
2022-12-06T06:45:28.722Z,10.13
2022-12-06T06:46:30.863Z,9.88
2022-12-06T06:47:32.764Z,8.90
2022-12-06T06:48:38.286Z,7.25
2022-12-06T06:49:40.798Z,7.22
2022-12-06T06:50:42.630Z,8.45
2022-12-06T06:51:45.400Z,8.75
2022-12-06T06:52:47.369Z,9.88
2022-12-06T06:53:49.376Z,11.30
2022-12-06T06:54:51.245Z,9.80
2022-12-06T06:55:53.970Z,12.90
2022-12-06T06:56:57.039Z,10.38
2022-12-06T06:57:58.799Z,11.05
2022-12-06T06:59:00.622Z,11.85
2022-12-06T07:00:04.490Z,9.02
2022-12-06T07:01:08.963Z,13.50
2022-12-06T07:02:17.247Z,8.75
2022-12-06T07:03:20.611Z,8.55
2022-12-06T07:04:22.618Z,9.68
2022-12-06T07:05:24.516Z,7.00
2022-12-06T07:06:26.300Z,7.28
2022-12-06T07:07:28.050Z,10.70
2022-12-06T07:08:32.016Z,10.10
2022-12-06T07:09:34.875Z,9.48
2022-12-06T07:10:36.673Z,8.30
2022-12-06T07:11:38.507Z,10.55
2022-12-06T07:12:40.268Z,8.63
2022-12-06T07:13:48.175Z,12.20
2022-12-06T07:14:54.197Z,8.75
2022-12-06T07:15:56.372Z,9.13
2022-12-06T07:16:58.309Z,8.80
2022-12-06T07:18:00.204Z,10.10
2022-12-06T07:19:06.255Z,8.15
2022-12-06T07:20:10.901Z,8.93
2022-12-06T07:21:15.719Z,10.35
2022-12-06T07:22:17.545Z,10.95
2022-12-06T07:23:19.360Z,10.23
2022-12-06T07:24:21.199Z,10.00
2022-12-06T07:25:22.972Z,12.25
2022-12-06T07:26:25.111Z,12.82
2022-12-06T07:27:27.094Z,9.48
2022-12-06T07:28:28.930Z,8.57
2022-12-06T07:29:30.679Z,10.25
2022-12-06T07:30:33.212Z,9.82
2022-12-06T07:31:35.418Z,9.63
2022-12-06T07:32:37.878Z,9.10
2022-12-06T07:33:40.909Z,8.02
2022-12-06T07:34:42.619Z,9.00
2022-12-06T07:36:11.325Z,11.50
2022-12-06T07:37:06.560Z,9.35
2022-12-06T07:38:08.241Z,9.43
2022-12-06T07:39:14.457Z,12.02
2022-12-06T07:40:21.015Z,10.13
2022-12-06T07:41:50.933Z,9.05
2022-12-06T07:43:11.388Z,9.63
2022-12-06T07:44:33.999Z,9.23
2022-12-06T07:45:36.722Z,10.25
2022-12-06T07:46:38.533Z,14.15
2022-12-06T07:47:43.422Z,9.52
2022-12-06T07:48:45.167Z,9.95
2022-12-06T07:49:46.928Z,9.07
2022-12-06T07:50:48.850Z,10.18
2022-12-06T07:51:51.139Z,12.90
2022-12-06T07:52:52.949Z,8.48
2022-12-06T07:53:55.547Z,9.63
2022-12-06T07:54:57.293Z,10.68
2022-12-06T07:56:05.960Z,9.32
2022-12-06T07:57:07.761Z,11.02
2022-12-06T07:58:09.571Z,10.70
2022-12-06T07:59:11.912Z,8.27
2022-12-06T08:00:16.191Z,8.38
2022-12-06T08:01:18.690Z,8.13
2022-12-06T08:02:25.593Z,11.57
2022-12-06T08:03:27.359Z,10.80
2022-12-06T08:04:29.337Z,10.45
2022-12-06T08:05:31.087Z,10.55
2022-12-06T08:06:35.001Z,11.52
2022-12-06T08:07:36.849Z,10.60
2022-12-06T08:08:39.308Z,10.48
2022-12-06T08:09:41.494Z,13.35
2022-12-06T08:10:43.258Z,12.65
2022-12-06T08:11:45.143Z,11.90
2022-12-06T08:12:47.000Z,14.05
2022-12-06T08:13:49.254Z,13.13
2022-12-06T08:14:53.181Z,13.95
2022-12-06T08:15:58.684Z,13.48
2022-12-06T08:17:00.907Z,10.52
2022-12-06T08:18:02.682Z,10.63
2022-12-06T08:19:04.536Z,9.45
2022-12-06T08:20:09.137Z,9.32
2022-12-06T08:21:11.998Z,9.63
2022-12-06T08:22:13.736Z,9.60
2022-12-06T08:23:15.451Z,10.40
2022-12-06T08:24:17.471Z,8.90
2022-12-06T08:25:19.273Z,9.90
2022-12-06T08:26:22.076Z,9.27
2022-12-06T08:27:23.875Z,11.13
2022-12-06T08:28:25.949Z,10.77
2022-12-06T08:29:27.685Z,10.13
2022-12-06T08:30:29.843Z,9.95
2022-12-06T08:31:34.580Z,10.25
2022-12-06T08:32:36.368Z,10.57
2022-12-06T08:33:38.579Z,8.30
2022-12-06T08:34:40.390Z,9.43
2022-12-06T08:35:42.135Z,9.27
2022-12-06T08:36:44.329Z,9.50
2022-12-06T08:37:46.078Z,8.50
2022-12-06T08:38:49.138Z,8.50
2022-12-06T08:39:50.903Z,8.25
2022-12-06T08:40:52.677Z,8.98
2022-12-06T08:42:00.109Z,8.23
2022-12-06T08:43:01.922Z,7.00
2022-12-06T08:44:05.337Z,8.23
2022-12-06T08:45:07.808Z,10.75
2022-12-06T08:46:09.697Z,11.30
2022-12-06T08:47:12.739Z,7.30
2022-12-06T08:48:14.530Z,7.78
2022-12-06T08:49:17.859Z,8.68
2022-12-06T08:50:19.621Z,8.15
2022-12-06T08:51:21.500Z,8.30
2022-12-06T08:52:23.319Z,7.80
2022-12-06T08:53:25.058Z,8.50
2022-12-06T08:54:27.729Z,8.80
2022-12-06T08:55:29.505Z,7.80
2022-12-06T08:56:31.337Z,6.60
2022-12-06T08:57:33.638Z,9.40
2022-12-06T08:58:35.455Z,7.03
2022-12-06T08:59:37.560Z,10.15
2022-12-06T09:00:39.294Z,8.35
2022-12-06T09:01:41.620Z,6.60
2022-12-06T09:02:43.403Z,6.65
2022-12-06T09:03:45.378Z,6.15
2022-12-06T09:04:51.952Z,7.18
2022-12-06T09:05:53.790Z,6.20
2022-12-06T09:06:55.556Z,6.88
2022-12-06T09:07:57.401Z,7.00
2022-12-06T09:08:59.320Z,5.50
2022-12-06T09:10:02.414Z,5.65
2022-12-06T09:11:05.677Z,4.90
2022-12-06T09:12:07.491Z,4.70
2022-12-06T09:13:09.426Z,6.30
2022-12-06T09:14:21.052Z,4.72
2022-12-06T09:15:23.782Z,4.20
2022-12-06T09:16:25.895Z,4.40
2022-12-06T09:17:27.692Z,4.50
2022-12-06T09:18:29.705Z,4.13
2022-12-06T09:19:31.574Z,3.60
2022-12-06T09:20:33.335Z,3.88
2022-12-06T09:21:35.598Z,3.92
2022-12-06T09:22:37.314Z,3.90
2022-12-06T09:23:39.466Z,3.80
2022-12-06T09:24:41.180Z,3.58
2022-12-06T09:25:43.732Z,3.50
2022-12-06T09:26:46.114Z,3.75
2022-12-06T09:27:48.857Z,3.67
2022-12-06T09:28:51.959Z,3.75
2022-12-06T09:29:53.964Z,3.20
2022-12-06T09:30:56.777Z,3.75
2022-12-06T09:31:58.586Z,3.50
2022-12-06T09:33:00.347Z,3.30
2022-12-06T09:34:02.080Z,4.07
2022-12-06T09:35:04.150Z,3.38
2022-12-06T09:36:22.607Z,3.17
2022-12-06T09:37:24.570Z,3.40
2022-12-06T09:38:30.571Z,3.80
2022-12-06T09:39:40.323Z,3.58
2022-12-06T09:40:52.799Z,3.80
2022-12-06T09:42:43.840Z,3.22
2022-12-06T09:44:10.131Z,2.72
2022-12-06T09:45:29.909Z,3.33
2022-12-06T09:47:00.214Z,2.92
2022-12-06T09:48:33.361Z,3.67
2022-12-06T09:49:46.948Z,3.38
2022-12-06T09:50:51.466Z,3.08
2022-12-06T09:52:24.643Z,3.00
2022-12-06T09:53:58.150Z,3.28
2022-12-06T09:55:24.635Z,3.17
2022-12-06T09:56:40.942Z,2.78
2022-12-06T09:57:51.949Z,3.00
2022-12-06T09:58:58.685Z,2.92
2022-12-06T10:00:20.731Z,3.20
2022-12-06T10:01:55.384Z,3.22
2022-12-06T10:03:22.085Z,2.60
2022-12-06T10:04:51.338Z,3.28
2022-12-06T10:06:13.078Z,2.75
2022-12-06T10:07:41.442Z,3.00
2022-12-06T10:09:23.110Z,3.15
2022-12-06T10:11:14.355Z,2.72
2022-12-06T10:12:18.919Z,2.90
2022-12-06T10:13:41.822Z,5.75
2022-12-06T10:14:55.658Z,2.78
2022-12-06T10:16:29.255Z,2.50
2022-12-06T10:17:57.175Z,2.40
2022-12-06T10:19:51.445Z,2.70
2022-12-06T10:21:15.810Z,2.67
2022-12-06T10:22:55.188Z,3.63
2022-12-06T10:24:23.573Z,2.88
2022-12-06T10:25:42.038Z,2.58
2022-12-06T10:26:53.834Z,2.75
2022-12-06T10:28:19.541Z,2.38
2022-12-06T10:29:55.761Z,2.60
2022-12-06T10:31:27.716Z,2.65
2022-12-06T10:33:05.365Z,2.63
2022-12-06T10:34:49.561Z,2.65
2022-12-06T10:36:00.031Z,2.50
2022-12-06T10:37:20.127Z,3.20
2022-12-06T10:38:45.978Z,2.75
2022-12-06T10:39:59.461Z,2.53
2022-12-06T10:41:15.243Z,2.50
2022-12-06T10:42:43.082Z,2.85
2022-12-06T10:43:55.314Z,2.90
2022-12-06T10:45:26.040Z,2.53
2022-12-06T10:46:53.584Z,2.58
2022-12-06T10:48:02.194Z,2.78
2022-12-06T10:49:41.999Z,2.90
2022-12-06T10:50:50.939Z,2.58
2022-12-06T10:52:36.246Z,2.72
2022-12-06T10:53:49.745Z,2.53
2022-12-06T10:55:03.073Z,2.85
2022-12-06T10:56:20.238Z,2.78
2022-12-06T10:57:43.777Z,3.03
2022-12-06T10:59:09.667Z,2.72
2022-12-06T11:00:22.413Z,2.78
2022-12-06T11:01:34.330Z,3.17
2022-12-06T11:03:13.676Z,3.22
2022-12-06T11:04:37.768Z,2.60
2022-12-06T11:06:00.100Z,3.40
2022-12-06T11:07:08.558Z,3.10
2022-12-06T11:08:21.749Z,3.15
2022-12-06T11:09:40.666Z,2.65
2022-12-06T11:10:46.251Z,3.13
2022-12-06T11:11:50.319Z,3.20
2022-12-06T11:13:22.364Z,2.90
2022-12-06T11:14:30.682Z,2.78
2022-12-06T11:15:39.851Z,2.80
2022-12-06T11:16:50.884Z,2.95
2022-12-06T11:18:11.291Z,3.40
2022-12-06T11:19:30.428Z,3.22
2022-12-06T11:20:56.783Z,3.00
2022-12-06T11:22:17.151Z,3.28
2022-12-06T11:23:42.456Z,2.97
2022-12-06T11:25:28.664Z,3.22
2022-12-06T11:27:05.513Z,2.97
2022-12-06T11:28:25.710Z,3.08
2022-12-06T11:29:27.558Z,3.10
2022-12-06T11:30:33.341Z,3.25
2022-12-06T11:31:43.911Z,3.03
2022-12-06T11:32:48.718Z,3.60
2022-12-06T11:33:50.480Z,2.55
2022-12-06T11:34:56.995Z,3.00
2022-12-06T11:36:07.206Z,3.38
2022-12-06T11:37:22.093Z,3.05
2022-12-06T11:38:24.091Z,2.92
2022-12-06T11:39:26.798Z,3.00
2022-12-06T11:40:46.275Z,2.72
2022-12-06T11:41:55.386Z,3.33
2022-12-06T11:43:02.509Z,2.83
2022-12-06T11:44:05.631Z,2.63
2022-12-06T11:45:19.500Z,2.83
2022-12-06T11:46:23.877Z,3.00
2022-12-06T11:47:26.153Z,3.20
2022-12-06T11:48:32.940Z,2.60
2022-12-06T11:49:42.172Z,2.83
2022-12-06T11:50:46.872Z,2.90
2022-12-06T11:51:49.185Z,3.08
2022-12-06T11:53:05.108Z,3.22
2022-12-06T11:54:22.504Z,3.45
2022-12-06T11:55:36.707Z,3.60
2022-12-06T11:56:40.292Z,3.45
2022-12-06T11:57:55.817Z,3.83
2022-12-06T11:59:28.566Z,3.03
2022-12-06T12:00:31.298Z,2.88
2022-12-06T12:01:48.540Z,2.90
2022-12-06T12:02:53.817Z,3.08
2022-12-06T12:03:55.615Z,2.95
2022-12-06T12:05:14.945Z,3.08
2022-12-06T12:06:26.927Z,2.97
2022-12-06T12:07:29.423Z,3.10
2022-12-06T12:08:32.920Z,3.00
2022-12-06T12:09:59.597Z,3.08
2022-12-06T12:11:04.320Z,3.08
2022-12-06T12:12:20.056Z,3.25
2022-12-06T12:13:41.845Z,4.18
2022-12-06T12:14:50.993Z,3.03
2022-12-06T12:15:54.189Z,2.80
2022-12-06T12:17:03.040Z,3.45
2022-12-06T12:18:19.595Z,3.30
2022-12-06T12:19:44.713Z,3.45
2022-12-06T12:20:47.119Z,2.90
2022-12-06T12:21:54.076Z,3.30
2022-12-06T12:23:26.999Z,3.25
2022-12-06T12:26:22.205Z,2.85
2022-12-06T12:27:46.872Z,3.53
2022-12-06T12:29:08.815Z,2.80
2022-12-06T12:30:35.306Z,3.10
2022-12-06T12:31:58.706Z,2.85
2022-12-06T12:33:06.903Z,2.90
2022-12-06T12:34:19.214Z,3.17
2022-12-06T12:35:21.254Z,3.10
2022-12-06T12:36:29.066Z,2.90
2022-12-06T12:37:30.937Z,2.45
2022-12-06T12:38:52.040Z,2.90
2022-12-06T12:39:54.670Z,2.70
2022-12-06T12:41:01.363Z,2.53
2022-12-06T12:42:04.588Z,2.63
2022-12-06T12:43:13.491Z,3.22
2022-12-06T12:44:37.619Z,3.10
2022-12-06T12:46:10.700Z,2.97
2022-12-06T12:47:20.795Z,3.10
2022-12-06T12:48:26.606Z,2.92
2022-12-06T12:49:34.434Z,3.00
2022-12-06T12:50:36.288Z,3.10
2022-12-06T12:51:44.991Z,2.50
2022-12-06T12:52:51.414Z,2.60
2022-12-06T12:54:06.321Z,3.00
2022-12-06T12:55:17.602Z,2.65
2022-12-06T12:56:21.938Z,2.50
2022-12-06T12:57:24.152Z,2.60
2022-12-06T12:58:25.971Z,2.70
2022-12-06T12:59:37.420Z,2.60
2022-12-06T13:00:45.805Z,2.67
2022-12-06T13:01:55.973Z,2.67
2022-12-06T13:03:34.995Z,2.72
2022-12-06T13:05:05.051Z,3.97
2022-12-06T13:06:31.528Z,2.58
2022-12-06T13:07:41.254Z,2.35
2022-12-06T13:08:43.419Z,2.50
2022-12-06T13:10:01.093Z,2.80
2022-12-06T13:11:06.025Z,2.90
2022-12-06T13:12:19.368Z,2.88
2022-12-06T13:13:37.240Z,4.50
2022-12-06T13:14:52.231Z,3.03
2022-12-06T13:15:58.374Z,3.17
2022-12-06T13:17:07.397Z,3.67
2022-12-06T13:18:18.164Z,5.13
2022-12-06T13:19:35.490Z,7.03
2022-12-06T13:20:37.655Z,4.75
2022-12-06T13:21:42.893Z,3.55
2022-12-06T13:22:48.219Z,3.78
2022-12-06T13:24:00.862Z,4.30
2022-12-06T13:25:07.267Z,3.63
2022-12-06T13:26:42.941Z,3.78
2022-12-06T13:27:51.493Z,3.45
2022-12-06T13:29:01.679Z,3.97
2022-12-06T13:30:15.652Z,4.03
2022-12-06T13:31:24.114Z,3.85
2022-12-06T13:32:52.843Z,4.15
2022-12-06T13:34:01.973Z,4.13
2022-12-06T13:35:21.111Z,3.58
2022-12-06T13:36:25.511Z,4.53
2022-12-06T13:37:28.905Z,3.92
2022-12-06T13:38:35.004Z,4.47
2022-12-06T13:39:40.106Z,4.28
2022-12-06T13:41:02.843Z,4.57
2022-12-06T13:42:21.247Z,5.43
2022-12-06T13:43:26.051Z,4.57
2022-12-06T13:44:50.179Z,4.25
2022-12-06T13:46:07.376Z,7.90
2022-12-06T13:47:27.544Z,4.50
2022-12-06T13:48:51.932Z,4.38
2022-12-06T13:50:29.225Z,4.53
2022-12-06T13:51:30.923Z,4.32
2022-12-06T13:52:47.391Z,5.03
2022-12-06T13:54:04.470Z,5.00
2022-12-06T13:55:32.294Z,4.95
2022-12-06T13:56:33.965Z,5.35
2022-12-06T13:57:35.956Z,4.70
2022-12-06T13:58:49.770Z,5.75
2022-12-06T13:59:52.577Z,5.57
2022-12-06T14:00:57.179Z,5.35
2022-12-06T14:02:00.684Z,5.43
2022-12-06T14:03:17.496Z,5.82
2022-12-06T14:06:15.926Z,5.18
2022-12-06T14:07:33.526Z,4.78
2022-12-06T14:08:38.324Z,5.63
2022-12-06T14:09:49.803Z,5.18
2022-12-06T14:10:51.614Z,4.53
2022-12-06T14:11:54.228Z,5.38
2022-12-06T14:13:00.873Z,6.13
2022-12-06T14:14:08.939Z,5.90
2022-12-06T14:15:19.095Z,5.35
2022-12-06T14:16:42.436Z,4.97
2022-12-06T14:18:04.287Z,5.43
2022-12-06T14:19:41.656Z,6.30
2022-12-06T14:20:43.867Z,8.48
2022-12-06T14:22:02.451Z,9.25
2022-12-06T14:23:22.279Z,5.68
2022-12-06T14:24:35.013Z,6.40
2022-12-06T14:25:36.868Z,7.05
2022-12-06T14:26:38.658Z,6.18
2022-12-06T14:27:48.633Z,6.45
2022-12-06T14:28:54.065Z,6.15
2022-12-06T14:30:15.462Z,6.68
2022-12-06T14:31:30.316Z,6.30
2022-12-06T14:32:54.235Z,5.97
2022-12-06T14:33:57.389Z,5.60
2022-12-06T14:35:23.118Z,5.07
2022-12-06T14:36:40.217Z,6.20
2022-12-06T14:38:20.956Z,5.28
2022-12-06T14:39:30.318Z,6.60
2022-12-06T14:40:58.977Z,4.90
2022-12-06T14:42:36.822Z,5.05
2022-12-06T14:43:41.984Z,5.32
2022-12-06T14:44:58.823Z,5.30
2022-12-06T14:46:09.925Z,5.00
2022-12-06T14:47:16.008Z,5.65
2022-12-06T14:48:18.052Z,5.38
2022-12-06T14:49:40.605Z,5.40
2022-12-06T14:50:48.555Z,4.90
2022-12-06T14:51:52.726Z,5.22
2022-12-06T14:53:02.863Z,5.18
2022-12-06T14:54:18.887Z,4.50
2022-12-06T14:55:20.919Z,4.65
2022-12-06T14:56:31.453Z,4.57
2022-12-06T14:57:38.979Z,4.95
2022-12-06T14:58:42.904Z,5.10
2022-12-06T15:00:14.305Z,4.80
2022-12-06T15:01:22.383Z,4.90
2022-12-06T15:02:28.640Z,4.35
2022-12-06T15:03:37.533Z,4.93
2022-12-06T15:04:40.556Z,4.85
2022-12-06T15:05:49.574Z,4.97
2022-12-06T15:06:56.915Z,5.63
2022-12-06T15:07:58.985Z,4.93
2022-12-06T15:09:00.692Z,5.35
2022-12-06T15:10:29.861Z,5.30
2022-12-06T15:11:59.775Z,5.03
2022-12-06T15:13:17.453Z,5.28
2022-12-06T15:14:26.529Z,6.18
2022-12-06T15:15:39.611Z,5.05